الصفحة الرئيسية
METAR-TAF:

METAR-TAF

مطار :

مطار معيتيقة الدولي

طرابلس, ليبيا

دائرة عرض: 32-54N, خط طول: 13-17E, ارتفاع: 11 متر

METAR: مفقودة

زمن: 09:02 (07:02 UTC)

توقعات

تاريخ ووقت الإصدار 2ساعات و 2 دقيقة قبل الساعة 05:00UTC
التوقعات صالحة من15 الساعة 06 UTC إلى 16 الساعة 06 UTC
ريح 8 عقدة من الجنوب
الرؤية: 8000 متر

TAF: HLLM 150500Z 1506/1606 17008KT 8000 NSC

أرصاد الطقس والتوقعات من أكثر من 4000 مطار (تقارير الطقس للمطار METAR والتنبؤ بالطقس بالمطارTAF).

المحطات المتاحة هي النقط الصفراء والحمراء على الخريطة.

حرك المؤشر فوق النقطة لمعرفة اسم المحطة.

ثم انقر لمعرفة أرصاد وتوقعات الطقس.

لتغيير الخارطة: اضغط على الأزرار الخضراء مع رمز الصليب الأسود للتكبير. على الزر الأخضر مع شرطة للتصغير، أو على الأسهم الخضراء للخرائط المجاورة.


METAR-TAF: